createdAt,value
2019-01-31T20:54:20.495Z,29.10
2019-01-31T20:56:51.236Z,28.80
2019-01-31T20:59:19.958Z,29.07
2019-01-31T21:01:48.626Z,28.23
2019-01-31T21:04:17.555Z,28.43
2019-01-31T21:06:46.260Z,28.07
2019-01-31T21:09:15.174Z,29.27
2019-01-31T21:11:45.885Z,29.13
2019-01-31T21:14:14.521Z,28.77
2019-01-31T21:16:51.385Z,28.17
2019-01-31T21:19:14.500Z,26.87
2019-01-31T21:21:44.159Z,28.40
2019-01-31T21:24:12.536Z,27.03
2019-01-31T21:26:41.166Z,27.93
2019-01-31T21:29:09.666Z,26.57
2019-01-31T21:31:38.099Z,26.00
2019-01-31T21:34:06.465Z,25.67
2019-01-31T21:36:35.681Z,25.73
2019-01-31T21:39:05.569Z,25.23
2019-01-31T21:41:33.818Z,25.30
2019-01-31T21:44:02.084Z,25.43
2019-01-31T21:46:32.630Z,24.20
2019-01-31T21:49:00.912Z,25.00
2019-01-31T21:51:29.169Z,24.63
2019-01-31T21:53:57.435Z,23.60
2019-01-31T21:56:25.897Z,25.37
2019-01-31T21:58:54.041Z,25.10
2019-01-31T22:01:22.232Z,24.73
2019-01-31T22:03:50.444Z,24.77
2019-01-31T22:06:22.788Z,24.50
2019-01-31T22:08:48.535Z,25.37
2019-01-31T22:11:16.732Z,25.13
2019-01-31T22:13:45.808Z,24.47
2019-01-31T22:16:14.019Z,24.97
2019-01-31T22:18:42.215Z,25.17
2019-01-31T22:21:10.397Z,25.57
2019-01-31T22:23:38.579Z,26.67
2019-01-31T22:26:06.789Z,25.30
2019-01-31T22:28:34.972Z,25.77
2019-01-31T22:31:03.166Z,26.03
2019-01-31T22:33:31.354Z,28.17
2019-01-31T22:35:59.568Z,27.27
2019-01-31T22:38:27.745Z,26.50
2019-01-31T22:40:55.924Z,25.97
2019-01-31T22:43:24.110Z,25.00
2019-01-31T22:45:52.298Z,25.10
2019-01-31T22:48:20.486Z,24.30
2019-01-31T22:50:48.675Z,24.63
2019-01-31T22:53:16.897Z,24.17
2019-01-31T22:55:45.083Z,24.33
2019-01-31T22:58:13.281Z,25.17
2019-01-31T23:00:52.020Z,24.90
2019-01-31T23:03:20.214Z,23.63
2019-01-31T23:05:48.389Z,24.17
2019-01-31T23:08:16.580Z,23.57
2019-01-31T23:10:44.844Z,23.70
2019-01-31T23:13:13.027Z,24.27
2019-01-31T23:15:41.212Z,23.27
2019-01-31T23:18:09.511Z,23.00
2019-01-31T23:20:37.692Z,23.07
2019-01-31T23:23:05.886Z,23.30
2019-01-31T23:25:40.279Z,22.13
2019-01-31T23:28:04.273Z,23.33
2019-01-31T23:30:32.454Z,22.43
2019-01-31T23:33:00.650Z,21.80
2019-01-31T23:35:28.834Z,21.90
2019-01-31T23:37:57.065Z,22.23
2019-01-31T23:40:25.243Z,22.00
2019-01-31T23:42:53.475Z,22.23
2019-01-31T23:45:21.655Z,22.23
2019-01-31T23:47:49.858Z,21.33
2019-01-31T23:50:18.030Z,22.77
2019-01-31T23:52:46.217Z,23.20
2019-01-31T23:55:15.850Z,22.07
2019-01-31T23:57:44.038Z,22.47
